createdAt,value
2023-01-20T00:01:48.487Z,33.10
2023-01-20T00:04:15.806Z,33.20
2023-01-20T00:06:42.824Z,29.80
2023-01-20T00:09:14.176Z,31.10
2023-01-20T00:11:41.079Z,32.30
2023-01-20T00:14:09.078Z,34.20
2023-01-20T00:16:36.376Z,32.40
2023-01-20T00:19:03.488Z,31.40
2023-01-20T00:21:30.555Z,31.90
2023-01-20T00:23:57.625Z,33.70
2023-01-20T00:26:24.852Z,33.20
2023-01-20T00:28:54.098Z,30.80
2023-01-20T00:31:22.933Z,29.30
2023-01-20T00:33:51.429Z,32.40
2023-01-20T00:36:19.364Z,36.50
2023-01-20T00:38:46.415Z,40.00
2023-01-20T00:41:13.648Z,36.10
2023-01-20T00:43:46.035Z,40.30
2023-01-20T00:46:13.502Z,40.90
2023-01-20T00:48:40.532Z,36.60
2023-01-20T00:51:08.258Z,36.90
2023-01-20T00:53:35.612Z,34.50
2023-01-20T00:56:02.559Z,33.60
2023-01-20T00:58:29.565Z,36.00
2023-01-20T01:00:58.933Z,33.60
2023-01-20T01:03:28.211Z,34.00
2023-01-20T01:05:55.645Z,31.40
2023-01-20T01:08:22.639Z,32.10
2023-01-20T01:10:49.684Z,35.90
2023-01-20T01:13:16.738Z,35.40
2023-01-20T01:15:49.814Z,32.60
2023-01-20T01:18:17.082Z,35.80
2023-01-20T01:20:45.042Z,30.10
2023-01-20T01:23:12.759Z,32.90
2023-01-20T01:25:39.971Z,34.60
2023-01-20T01:28:06.973Z,33.40
2023-01-20T01:30:33.983Z,34.90
2023-01-20T01:33:01.303Z,31.50
2023-01-20T01:35:28.357Z,32.30
2023-01-20T01:37:55.507Z,33.60
2023-01-20T01:40:27.613Z,33.90
2023-01-20T01:42:54.716Z,35.10
2023-01-20T01:45:23.580Z,33.40
2023-01-20T01:47:56.433Z,32.30
2023-01-20T01:50:30.867Z,34.20
2023-01-20T01:53:02.932Z,33.70
2023-01-20T01:55:31.844Z,30.50
2023-01-20T01:57:58.857Z,31.40
2023-01-20T02:00:31.194Z,33.90
2023-01-20T02:02:58.216Z,31.30
2023-01-20T02:05:30.404Z,33.00
2023-01-20T02:07:57.387Z,32.20
2023-01-20T02:10:30.346Z,30.80
2023-01-20T02:12:57.277Z,30.70
2023-01-20T02:15:27.702Z,32.40
2023-01-20T02:18:16.206Z,30.20
2023-01-20T02:20:57.458Z,32.00
2023-01-20T02:23:53.461Z,31.70
2023-01-20T02:26:23.474Z,30.00
2023-01-20T02:28:59.521Z,28.80
2023-01-20T02:31:45.224Z,34.40
2023-01-20T02:34:25.954Z,30.60
2023-01-20T02:37:03.372Z,36.10
2023-01-20T02:39:44.692Z,31.10
2023-01-20T02:42:21.775Z,27.60
2023-01-20T02:45:00.193Z,27.00
2023-01-20T02:47:43.483Z,29.80
2023-01-20T02:50:23.431Z,31.00
2023-01-20T02:52:52.538Z,32.20
2023-01-20T02:55:25.612Z,27.00
2023-01-20T02:57:56.522Z,28.40
2023-01-20T03:00:25.997Z,28.90
2023-01-20T03:02:53.708Z,29.90
2023-01-20T03:05:22.620Z,28.90
2023-01-20T03:07:49.770Z,27.30
2023-01-20T03:10:18.784Z,28.20
2023-01-20T03:12:51.681Z,27.00
2023-01-20T03:15:21.203Z,25.10
2023-01-20T03:17:48.296Z,27.50
2023-01-20T03:20:20.642Z,23.40
2023-01-20T03:22:47.743Z,31.80
2023-01-20T03:25:15.387Z,27.70
2023-01-20T03:27:43.042Z,28.80
2023-01-20T03:30:16.785Z,29.30
2023-01-20T03:32:46.146Z,26.60
2023-01-20T03:35:16.516Z,25.80
2023-01-20T03:37:44.313Z,27.00
2023-01-20T03:40:17.121Z,27.00
2023-01-20T03:42:52.807Z,28.20
2023-01-20T03:45:27.386Z,26.10
2023-01-20T03:48:13.937Z,25.00
2023-01-20T03:50:47.991Z,25.90
2023-01-20T03:53:46.030Z,26.70
2023-01-20T03:56:25.816Z,25.40
2023-01-20T03:58:53.715Z,23.90
2023-01-20T04:01:22.875Z,27.60
2023-01-20T04:03:51.267Z,26.40
2023-01-20T04:06:25.087Z,26.20
2023-01-20T04:09:00.741Z,28.10
2023-01-20T04:11:28.163Z,26.10
2023-01-20T04:13:55.233Z,27.40
2023-01-20T04:16:22.277Z,27.20
2023-01-20T04:18:50.440Z,27.70
2023-01-20T04:21:31.245Z,24.50
2023-01-20T04:24:03.470Z,26.40
2023-01-20T04:26:30.355Z,25.30
2023-01-20T04:28:57.481Z,23.00
2023-01-20T04:31:30.705Z,28.30
2023-01-20T04:33:58.476Z,26.40
2023-01-20T04:36:25.584Z,28.90
2023-01-20T04:38:52.537Z,32.90
2023-01-20T04:41:19.542Z,32.00
2023-01-20T04:43:47.144Z,28.70
2023-01-20T04:46:14.895Z,29.30
2023-01-20T04:48:42.044Z,28.80
2023-01-20T04:51:09.112Z,26.80
2023-01-20T04:53:36.140Z,28.50
2023-01-20T04:56:03.188Z,30.70
2023-01-20T04:58:30.337Z,28.60
2023-01-20T05:00:57.368Z,34.10
2023-01-20T05:03:24.300Z,25.90
2023-01-20T05:05:54.880Z,27.80
2023-01-20T05:08:22.289Z,32.00
2023-01-20T05:10:49.434Z,28.20
2023-01-20T05:13:16.517Z,29.70
2023-01-20T05:15:48.801Z,27.60
2023-01-20T05:18:15.720Z,27.00
2023-01-20T05:20:45.688Z,29.10
2023-01-20T05:23:12.704Z,26.80
2023-01-20T05:25:39.993Z,29.90
2023-01-20T05:28:07.081Z,33.30
2023-01-20T05:30:34.126Z,31.90
2023-01-20T05:33:01.286Z,31.70
2023-01-20T05:35:28.362Z,29.80
2023-01-20T05:37:55.638Z,30.40
2023-01-20T05:40:22.538Z,35.90
2023-01-20T05:42:54.629Z,33.10
2023-01-20T05:45:21.706Z,32.80
2023-01-20T05:47:48.800Z,30.20
2023-01-20T05:50:16.466Z,29.20
2023-01-20T05:52:43.409Z,31.10
2023-01-20T05:55:10.319Z,31.20
2023-01-20T05:57:37.396Z,29.60
2023-01-20T06:00:11.140Z,31.70
2023-01-20T06:02:38.445Z,32.20
2023-01-20T06:05:06.367Z,31.40
2023-01-20T06:07:33.467Z,33.70
2023-01-20T06:10:01.337Z,34.70
2023-01-20T06:12:28.310Z,35.40
2023-01-20T06:14:55.328Z,33.30
2023-01-20T06:17:22.288Z,33.10
2023-01-20T06:19:49.395Z,30.90
2023-01-20T06:22:16.469Z,28.50
2023-01-20T06:24:43.469Z,30.20
2023-01-20T06:27:13.469Z,33.40
2023-01-20T06:29:40.596Z,32.60
2023-01-20T06:32:07.571Z,30.40
2023-01-20T06:34:34.490Z,35.00
2023-01-20T06:37:02.441Z,35.10
2023-01-20T06:39:29.620Z,29.40
2023-01-20T06:41:59.929Z,34.40
2023-01-20T06:44:27.241Z,30.50
2023-01-20T06:46:54.447Z,40.20
2023-01-20T06:49:21.471Z,34.50
2023-01-20T06:51:49.676Z,33.00
2023-01-20T06:54:16.743Z,32.90
2023-01-20T06:56:43.784Z,36.00
2023-01-20T06:59:11.656Z,36.80
2023-01-20T07:01:39.175Z,30.10
2023-01-20T07:04:06.819Z,35.00
2023-01-20T07:06:38.717Z,32.10
2023-01-20T07:09:06.945Z,35.10
2023-01-20T07:11:36.153Z,33.60
2023-01-20T11:25:25.196Z,25.60
2023-01-20T11:27:52.441Z,30.40
2023-01-20T11:30:22.258Z,25.20
2023-01-20T11:33:35.211Z,30.40
2023-01-20T11:36:29.421Z,25.10
2023-01-20T11:38:57.491Z,26.00
2023-01-20T11:41:25.517Z,28.60
2023-01-20T11:43:57.194Z,27.50
2023-01-20T11:46:28.514Z,29.10
2023-01-20T11:49:17.199Z,27.70
2023-01-20T11:51:54.521Z,34.40
2023-01-20T11:54:29.328Z,26.10
2023-01-20T11:57:04.188Z,30.00
2023-01-20T11:59:34.516Z,28.50
2023-01-20T12:02:20.806Z,31.40
2023-01-20T12:04:50.926Z,23.80
2023-01-20T12:07:25.468Z,26.20
2023-01-20T12:09:54.418Z,26.10
2023-01-20T12:12:52.446Z,25.90
2023-01-20T12:15:25.244Z,25.50
2023-01-20T12:18:02.864Z,22.70
2023-01-20T12:20:54.663Z,27.50
2023-01-20T12:23:22.528Z,21.90
2023-01-20T12:25:53.889Z,24.60
2023-01-20T12:28:42.671Z,24.80
2023-01-20T12:31:10.271Z,22.60
2023-01-20T12:33:38.963Z,21.70
2023-01-20T12:36:16.876Z,24.00
2023-01-20T12:39:08.723Z,25.90
2023-01-20T12:42:10.539Z,24.20
2023-01-20T12:44:57.883Z,28.60
2023-01-20T12:47:37.929Z,25.60
2023-01-20T12:50:42.119Z,19.70
2023-01-20T12:53:48.099Z,20.60
2023-01-20T12:56:33.662Z,24.40
2023-01-20T12:59:06.356Z,24.70
2023-01-20T13:01:52.271Z,19.30
2023-01-20T13:04:44.262Z,20.40
2023-01-20T13:07:32.819Z,21.70
2023-01-20T13:10:40.782Z,22.30
2023-01-20T13:13:24.043Z,20.80
2023-01-20T13:15:57.237Z,20.80
2023-01-20T13:19:03.197Z,23.10
2023-01-20T13:21:31.496Z,21.70
2023-01-20T13:24:02.740Z,22.90
2023-01-20T13:26:30.126Z,24.70
2023-01-20T13:28:57.410Z,22.00
2023-01-20T13:31:43.211Z,22.60
2023-01-20T13:34:22.666Z,22.80
2023-01-20T13:37:02.381Z,24.50
2023-01-20T13:39:29.281Z,21.20
2023-01-20T13:41:56.279Z,21.90
2023-01-20T13:44:33.820Z,21.60
2023-01-20T13:47:00.842Z,18.80
2023-01-20T13:49:29.310Z,24.40
2023-01-20T13:51:56.305Z,22.00
2023-01-20T13:54:28.441Z,20.50
2023-01-20T13:57:22.779Z,23.80
2023-01-20T13:59:50.151Z,20.70
2023-01-20T14:02:18.078Z,23.60
2023-01-20T14:04:45.753Z,20.00
2023-01-20T14:07:26.375Z,26.30
2023-01-20T14:09:55.904Z,24.60
2023-01-20T14:12:22.709Z,22.50
2023-01-20T14:14:51.593Z,22.40
2023-01-20T14:17:26.995Z,24.10
2023-01-20T14:19:54.920Z,24.50
2023-01-20T14:22:26.551Z,22.80
2023-01-20T14:24:58.560Z,27.90
2023-01-20T14:27:31.507Z,26.90
2023-01-20T14:30:22.780Z,30.30
2023-01-20T14:32:50.450Z,25.70
2023-01-20T14:35:23.504Z,26.00
2023-01-20T14:37:51.307Z,26.40
2023-01-20T14:40:32.028Z,27.90
2023-01-20T14:43:13.993Z,31.40
2023-01-20T14:45:43.096Z,36.20
2023-01-20T14:48:09.938Z,33.00
2023-01-20T14:50:38.123Z,36.50
2023-01-20T14:53:05.063Z,33.60
2023-01-20T14:55:36.342Z,37.60
2023-01-20T14:58:07.844Z,36.10
2023-01-20T15:00:44.267Z,38.40
2023-01-20T15:03:26.866Z,42.50
2023-01-20T15:05:54.075Z,43.00
2023-01-20T15:08:53.461Z,46.40
2023-01-20T15:11:30.747Z,49.30
2023-01-20T15:14:10.366Z,38.50
2023-01-20T15:16:48.841Z,47.90
2023-01-20T15:19:22.332Z,46.30
2023-01-20T15:22:04.729Z,44.80
2023-01-20T15:24:34.085Z,50.50
2023-01-20T15:27:01.368Z,51.10
2023-01-20T15:29:33.051Z,54.30
2023-01-20T15:32:01.668Z,48.70
2023-01-20T15:34:29.595Z,53.40
2023-01-20T15:36:56.640Z,48.70
2023-01-20T15:39:25.608Z,46.20
2023-01-20T15:41:56.516Z,49.90
2023-01-20T15:44:24.112Z,48.40
2023-01-20T15:46:51.399Z,50.50
2023-01-20T15:49:18.599Z,48.40
2023-01-20T15:51:45.727Z,53.60
2023-01-20T15:54:13.409Z,49.20
2023-01-20T15:56:41.419Z,46.00
2023-01-20T15:59:21.331Z,50.40
2023-01-20T16:01:51.108Z,53.40
2023-01-20T16:04:19.965Z,50.50
2023-01-20T16:06:46.840Z,44.90
2023-01-20T20:16:55.118Z,29.00
2023-01-20T20:19:22.369Z,29.80
2023-01-20T20:21:49.428Z,28.60
2023-01-20T20:24:17.994Z,27.00
2023-01-20T20:26:45.693Z,28.60
2023-01-20T20:29:13.937Z,26.00
2023-01-20T20:31:41.902Z,24.00
2023-01-20T20:34:12.185Z,27.40
2023-01-20T20:36:39.859Z,28.60
2023-01-20T20:39:07.824Z,24.00
2023-01-20T20:41:36.086Z,29.30
2023-01-20T20:44:03.404Z,27.40
2023-01-20T20:46:30.984Z,25.20
2023-01-20T20:48:59.105Z,24.40
2023-01-20T20:51:26.679Z,21.20
2023-01-20T20:53:57.817Z,27.00
2023-01-20T20:56:27.607Z,25.60
2023-01-20T20:59:01.416Z,29.30
2023-01-20T21:01:32.865Z,28.60
2023-01-20T21:04:01.430Z,32.10
2023-01-20T21:06:28.771Z,24.40
2023-01-20T21:08:55.817Z,22.20
2023-01-20T21:11:23.991Z,23.60
2023-01-20T21:13:51.936Z,22.40
2023-01-20T21:16:26.548Z,25.10
2023-01-20T21:18:55.630Z,21.60
2023-01-20T21:21:23.153Z,22.30
2023-01-20T21:23:53.227Z,27.00
2023-01-20T21:26:22.062Z,30.20
2023-01-20T21:28:49.024Z,21.60
2023-01-20T21:31:18.662Z,27.00
2023-01-20T21:33:48.830Z,26.00
2023-01-20T21:36:18.041Z,22.30
2023-01-20T21:38:51.148Z,23.40
2023-01-20T21:41:18.333Z,21.20
2023-01-20T21:44:10.408Z,24.20
2023-01-20T21:46:39.670Z,24.30
2023-01-20T21:49:27.360Z,23.80
2023-01-20T21:52:14.292Z,22.90
2023-01-20T21:54:41.702Z,23.50
2023-01-20T21:57:11.113Z,24.60
2023-01-20T21:59:38.810Z,30.70
2023-01-20T22:02:06.131Z,24.90
2023-01-20T22:04:33.401Z,31.80
2023-01-20T22:07:05.585Z,26.60
2023-01-20T22:09:33.018Z,23.20
2023-01-20T22:11:59.900Z,22.50
2023-01-20T22:14:26.849Z,23.30
2023-01-20T22:16:59.060Z,24.70
2023-01-20T22:19:26.243Z,27.00
2023-01-20T22:21:53.068Z,20.10
2023-01-20T22:24:20.049Z,21.10
2023-01-20T22:26:47.995Z,23.70
2023-01-20T22:29:15.614Z,27.60
2023-01-20T22:31:47.906Z,27.50
2023-01-20T22:34:14.838Z,22.70
2023-01-20T22:36:42.087Z,19.70
2023-01-20T22:39:09.561Z,25.40
2023-01-20T22:41:36.860Z,21.20
2023-01-20T22:44:03.702Z,24.00
2023-01-20T22:46:33.662Z,25.00
2023-01-20T22:49:00.671Z,22.80
2023-01-20T22:51:28.517Z,28.10
2023-01-20T22:54:01.471Z,23.90
2023-01-20T22:56:30.507Z,23.90
2023-01-20T22:58:58.033Z,25.00
2023-01-20T23:01:29.902Z,24.00
2023-01-20T23:04:02.984Z,21.30
2023-01-20T23:06:32.255Z,24.50
2023-01-20T23:09:00.835Z,18.50
2023-01-20T23:11:28.022Z,19.90
2023-01-20T23:13:55.278Z,25.00
2023-01-20T23:16:22.647Z,19.70
2023-01-20T23:18:50.971Z,19.70
2023-01-20T23:21:19.552Z,24.60
2023-01-20T23:23:46.922Z,17.20
2023-01-20T23:26:18.023Z,21.50
2023-01-20T23:28:45.617Z,18.60
2023-01-20T23:31:14.708Z,18.40
2023-01-20T23:33:46.949Z,16.60
2023-01-20T23:36:15.977Z,21.10
2023-01-20T23:38:43.325Z,21.90
2023-01-20T23:41:13.865Z,24.40
2023-01-20T23:43:41.751Z,21.70
2023-01-20T23:46:09.426Z,17.40
2023-01-20T23:48:42.159Z,15.80
2023-01-20T23:51:09.171Z,18.10
2023-01-20T23:53:37.705Z,19.70
2023-01-20T23:56:07.205Z,17.60
2023-01-20T23:58:34.578Z,14.10
